This is the latest recevied weather packets stored in our database for station/object KCCA. If no packets are shown the sender has not sent any weather packets the latest 10 day(s).
| Time | Temp. | Humidity | Pressure | Rain* | Wind** | Luminosity | Snow |
|---|---|---|---|---|---|---|---|
| 1777915407 | 25° C | 41% | 1014.6 hPa | - | - | - | - |
| 1777914809 | 23.89° C | 44% | 1011.5 hPa | - | - | - | - |
| 1777914206 | 23.89° C | 44% | 1011.5 hPa | - | - | - | - |
| 1777913608 | 23.89° C | 44% | 1011.9 hPa | - | - | - | - |
| 1777913008 | 23.89° C | 44% | 1011.9 hPa | - | - | - | - |
| 1777912410 | 22.78° C | 46% | 1015.2 hPa | - | - | - | - |
| 1777911810 | 22.78° C | 46% | 1015.2 hPa | - | - | - | - |
| 1777911207 | 22.78° C | 43% | 1012.5 hPa | - | - | - | - |
| 1777910614 | 22.78° C | 43% | 1012.5 hPa | - | - | - | - |
| 1777910011 | 22.78° C | 46% | 1012.5 hPa | - | - | - | - |
| 1777909407 | 22.78° C | 46% | 1012.5 hPa | - | - | - | - |
| 1777908811 | 21.67° C | 49% | 1012.9 hPa | - | - | - | - |
| 1777908206 | 21.67° C | 49% | 1012.9 hPa | - | - | - | - |
| 1777907606 | 20.56° C | 56% | 1015.2 hPa | - | - | - | - |
| 1777907009 | 20.56° C | 56% | 1015.2 hPa | - | - | - | - |
| 1777906406 | 18.89° C | 68% | 1013.2 hPa | - | - | - | - |
| 1777905807 | 18.89° C | 68% | 1013.2 hPa | - | - | - | - |
| 1777905207 | 17.78° C | 67% | 1013.2 hPa | - | - | - | - |
| 1777904604 | 17.78° C | 67% | 1013.2 hPa | - | - | - | - |
| 1777904009 | 15.56° C | 82% | 1013.5 hPa | - | - | - | - |
| 1777903404 | 15.56° C | 82% | 1013.5 hPa | - | - | - | - |
| 1777902805 | 13.89° C | 87% | 1013.2 hPa | - | - | - | - |
| 1777902206 | 13.89° C | 87% | 1013.2 hPa | - | - | - | - |
| 1777901610 | 12.78° C | 93% | 1013.2 hPa | - | - | - | - |
| 1777901007 | 12.78° C | 93% | 1013.2 hPa | - | - | - | - |
* Rain since midnight (hover to see other rain measurements)
** Current wind speed in m/s (hover to see current wind gust speed)